AFT293 FQVL-FQBR
Flight info
| Callsign | AFT293 |
|---|---|
| Flight time | 0h 30m |
| Altitude | 21000 |
| Route | VL W15 VBR |
| Aircraft | C25C/M-SDE2E3FGHRWXY/LB1 |
Departure
| Time | 2026-05-07 19:18 |
|---|---|
| Airport | Vilankulo Airport (FQVL) |
Arrival
| Time | 2026-05-07 19:48 |
|---|---|
| Airport | Beira International Airport (FQBR) |
| Time | Latitude | Longitude | Altitude | Speed | Heading |
|---|---|---|---|---|---|
| 2026-05-07 18:59 | -22.01665 | 35.31515 | 48 ft | 0 kts | 155° |
| 2026-05-07 19:14 | -22.01667 | 35.31515 | 50 ft | 2 kts | 173° |
| 2026-05-07 19:14 | -22.01687 | 35.31489 | 50 ft | 7 kts | 276° |
| 2026-05-07 19:14 | -22.01639 | 35.31450 | 50 ft | 11 kts | 335° |
| 2026-05-07 19:15 | -22.01568 | 35.31408 | 50 ft | 9 kts | 284° |
| 2026-05-07 19:15 | -22.01615 | 35.31285 | 47 ft | 30 kts | 246° |
| 2026-05-07 19:15 | -22.01780 | 35.31265 | 49 ft | 27 kts | 153° |
| 2026-05-07 19:15 | -22.01945 | 35.31352 | 48 ft | 26 kts | 155° |
| 2026-05-07 19:16 | -22.02115 | 35.31426 | 49 ft | 25 kts | 158° |
| 2026-05-07 19:16 | -22.02270 | 35.31500 | 50 ft | 24 kts | 156° |
| 2026-05-07 19:16 | -22.02340 | 35.31555 | 50 ft | 0 kts | 173° |
| 2026-05-07 19:16 | -22.02341 | 35.31554 | 50 ft | 1 kts | 191° |
| 2026-05-07 19:17 | -22.02339 | 35.31545 | 48 ft | 4 kts | 326° |
| 2026-05-07 19:17 | -22.02307 | 35.31525 | 50 ft | 17 kts | 334° |
| 2026-05-07 19:17 | -22.02132 | 35.31443 | 44 ft | 59 kts | 336° |
| 2026-05-07 19:17 | -22.01631 | 35.31201 | 54 ft | 121 kts | 334° |
| 2026-05-07 19:18 | -22.00691 | 35.30760 | 726 ft | 166 kts | 336° |
| 2026-05-07 19:18 | -21.99456 | 35.30195 | 1476 ft | 210 kts | 336° |
| 2026-05-07 19:18 | -21.98050 | 35.29543 | 2456 ft | 232 kts | 336° |
| 2026-05-07 19:18 | -21.96454 | 35.28936 | 3417 ft | 248 kts | 348° |
| 2026-05-07 19:19 | -21.94887 | 35.28709 | 4692 ft | 246 kts | 352° |
| 2026-05-07 19:19 | -21.93168 | 35.28476 | 5860 ft | 253 kts | 349° |
| 2026-05-07 19:19 | -21.91708 | 35.28188 | 6777 ft | 257 kts | 346° |
| 2026-05-07 19:19 | -21.89962 | 35.27820 | 7865 ft | 260 kts | 345° |
| 2026-05-07 19:20 | -21.88169 | 35.27448 | 8957 ft | 264 kts | 345° |
| 2026-05-07 19:20 | -21.86346 | 35.27091 | 10058 ft | 268 kts | 345° |
| 2026-05-07 19:20 | -21.84501 | 35.26724 | 11058 ft | 272 kts | 345° |
| 2026-05-07 19:20 | -21.82620 | 35.26346 | 12034 ft | 276 kts | 345° |
| 2026-05-07 19:21 | -21.80712 | 35.25968 | 12973 ft | 281 kts | 346° |
| 2026-05-07 19:21 | -21.78781 | 35.25580 | 13888 ft | 285 kts | 346° |
| 2026-05-07 19:21 | -21.76814 | 35.25190 | 14761 ft | 289 kts | 346° |
| 2026-05-07 19:21 | -21.74838 | 35.24794 | 16041 ft | 289 kts | 346° |
| 2026-05-07 19:22 | -21.72867 | 35.24404 | 17236 ft | 294 kts | 346° |
| 2026-05-07 19:22 | -21.70834 | 35.23995 | 18422 ft | 299 kts | 346° |
| 2026-05-07 19:22 | -21.68766 | 35.23585 | 19444 ft | 305 kts | 346° |
| 2026-05-07 19:22 | -21.66671 | 35.23164 | 20280 ft | 310 kts | 346° |
| 2026-05-07 19:23 | -21.64525 | 35.22742 | 20776 ft | 315 kts | 346° |
| 2026-05-07 19:23 | -21.62329 | 35.22304 | 20942 ft | 327 kts | 346° |
| 2026-05-07 19:23 | -21.60065 | 35.21855 | 20969 ft | 342 kts | 346° |
| 2026-05-07 19:23 | -21.57677 | 35.21374 | 20980 ft | 355 kts | 346° |
| 2026-05-07 19:24 | -21.55210 | 35.20885 | 20979 ft | 366 kts | 346° |
| 2026-05-07 19:24 | -21.52681 | 35.20380 | 20984 ft | 377 kts | 346° |
| 2026-05-07 19:24 | -21.50050 | 35.19860 | 20981 ft | 386 kts | 346° |
| 2026-05-07 19:24 | -21.47368 | 35.19327 | 20979 ft | 394 kts | 346° |
| 2026-05-07 19:25 | -21.44656 | 35.18788 | 20979 ft | 399 kts | 346° |
| 2026-05-07 19:25 | -21.41911 | 35.18245 | 20981 ft | 404 kts | 346° |
| 2026-05-07 19:25 | -21.39142 | 35.17693 | 20979 ft | 401 kts | 346° |
| 2026-05-07 19:25 | -21.36458 | 35.17166 | 20982 ft | 393 kts | 346° |
| 2026-05-07 19:26 | -21.33788 | 35.16634 | 20983 ft | 388 kts | 346° |
| 2026-05-07 19:26 | -21.31149 | 35.16112 | 20981 ft | 383 kts | 346° |
| 2026-05-07 19:26 | -21.28533 | 35.15590 | 20979 ft | 380 kts | 346° |
| 2026-05-07 19:26 | -21.25938 | 35.15078 | 20976 ft | 377 kts | 346° |
| 2026-05-07 19:27 | -21.23394 | 35.14574 | 20972 ft | 375 kts | 346° |
| 2026-05-07 19:27 | -21.20830 | 35.14066 | 20966 ft | 373 kts | 346° |
| 2026-05-07 19:27 | -21.19147 | 35.13733 | 20961 ft | 372 kts | 346° |
| 2026-05-07 19:27 | -21.16599 | 35.13251 | 20965 ft | 370 kts | 346° |
| 2026-05-07 19:28 | -21.14062 | 35.12769 | 20964 ft | 369 kts | 346° |
| 2026-05-07 19:28 | -21.11539 | 35.12290 | 20966 ft | 368 kts | 346° |
| 2026-05-07 19:28 | -21.11221 | 35.12229 | 20966 ft | 368 kts | 346° |
| 2026-05-07 19:28 | -21.09188 | 35.11835 | 20965 ft | 367 kts | 346° |
| 2026-05-07 19:29 | -21.06668 | 35.11353 | 20769 ft | 372 kts | 346° |
| 2026-05-07 19:29 | -21.04100 | 35.10862 | 20508 ft | 377 kts | 347° |
| 2026-05-07 19:29 | -21.01493 | 35.10365 | 20248 ft | 382 kts | 347° |
| 2026-05-07 19:29 | -20.98865 | 35.09864 | 19995 ft | 385 kts | 347° |
| 2026-05-07 19:30 | -20.96224 | 35.09358 | 19742 ft | 388 kts | 347° |
| 2026-05-07 19:30 | -20.93551 | 35.08849 | 19490 ft | 386 kts | 347° |
| 2026-05-07 19:30 | -20.90948 | 35.08350 | 19244 ft | 384 kts | 347° |
| 2026-05-07 19:30 | -20.88325 | 35.07854 | 18996 ft | 381 kts | 347° |
| 2026-05-07 19:31 | -20.85716 | 35.07353 | 18746 ft | 380 kts | 347° |
| 2026-05-07 19:31 | -20.83121 | 35.06861 | 18503 ft | 378 kts | 347° |
| 2026-05-07 19:31 | -20.80537 | 35.06368 | 18253 ft | 376 kts | 348° |
| 2026-05-07 19:31 | -20.77959 | 35.05878 | 17969 ft | 375 kts | 347° |
| 2026-05-07 19:32 | -20.75397 | 35.05390 | 17690 ft | 374 kts | 348° |
| 2026-05-07 19:32 | -20.72863 | 35.04907 | 17412 ft | 373 kts | 347° |
| 2026-05-07 19:32 | -20.70310 | 35.04423 | 17135 ft | 373 kts | 347° |
| 2026-05-07 19:32 | -20.67746 | 35.03933 | 16861 ft | 372 kts | 347° |
| 2026-05-07 19:33 | -20.65187 | 35.03450 | 16585 ft | 372 kts | 347° |
| 2026-05-07 19:33 | -20.62660 | 35.02966 | 16316 ft | 372 kts | 347° |
| 2026-05-07 19:33 | -20.60076 | 35.02835 | 15991 ft | 377 kts | 2° |
| 2026-05-07 19:33 | -20.57445 | 35.03094 | 15505 ft | 377 kts | 1° |
| 2026-05-07 19:34 | -20.54876 | 35.03296 | 15009 ft | 363 kts | 1° |
| 2026-05-07 19:34 | -20.52391 | 35.03478 | 14532 ft | 352 kts | 1° |
| 2026-05-07 19:34 | -20.49982 | 35.03664 | 14070 ft | 343 kts | 1° |
| 2026-05-07 19:34 | -20.48418 | 35.03787 | 13765 ft | 339 kts | 1° |
| 2026-05-07 19:35 | -20.46079 | 35.03972 | 13288 ft | 333 kts | 1° |
| 2026-05-07 19:35 | -20.43786 | 35.04149 | 12848 ft | 327 kts | 1° |
| 2026-05-07 19:35 | -20.41524 | 35.04326 | 12417 ft | 323 kts | 1° |
| 2026-05-07 19:35 | -20.39302 | 35.04496 | 11987 ft | 320 kts | 1° |
| 2026-05-07 19:36 | -20.37082 | 35.04672 | 11561 ft | 317 kts | 1° |
| 2026-05-07 19:36 | -20.34907 | 35.04837 | 11145 ft | 316 kts | 1° |
| 2026-05-07 19:36 | -20.32730 | 35.05011 | 10731 ft | 307 kts | 1° |
| 2026-05-07 19:36 | -20.30626 | 35.05173 | 10322 ft | 297 kts | 1° |
| 2026-05-07 19:37 | -20.28596 | 35.05334 | 9930 ft | 288 kts | 1° |
| 2026-05-07 19:37 | -20.26610 | 35.05484 | 9526 ft | 281 kts | 1° |
| 2026-05-07 19:37 | -20.24697 | 35.05634 | 9159 ft | 275 kts | 1° |
| 2026-05-07 19:37 | -20.22803 | 35.05781 | 8794 ft | 270 kts | 2° |
| 2026-05-07 19:38 | -20.20946 | 35.05924 | 8438 ft | 266 kts | 2° |
| 2026-05-07 19:38 | -20.19111 | 35.06069 | 8084 ft | 263 kts | 2° |
| 2026-05-07 19:38 | -20.17303 | 35.06206 | 7738 ft | 260 kts | 2° |
| 2026-05-07 19:38 | -20.15502 | 35.06349 | 7392 ft | 258 kts | 2° |
| 2026-05-07 19:39 | -20.13720 | 35.06484 | 7047 ft | 256 kts | 2° |
| 2026-05-07 19:39 | -20.11947 | 35.06623 | 6712 ft | 255 kts | 2° |
| 2026-05-07 19:39 | -20.10177 | 35.06760 | 6368 ft | 256 kts | 3° |
| 2026-05-07 19:39 | -20.08421 | 35.06895 | 6014 ft | 256 kts | 3° |
| 2026-05-07 19:40 | -20.06620 | 35.07037 | 5666 ft | 255 kts | 4° |
| 2026-05-07 19:40 | -20.04856 | 35.07170 | 5327 ft | 255 kts | 4° |
| 2026-05-07 19:40 | -20.03108 | 35.07309 | 4990 ft | 254 kts | 4° |
| 2026-05-07 19:40 | -20.01346 | 35.07442 | 4648 ft | 253 kts | 4° |
| 2026-05-07 19:41 | -19.99582 | 35.07582 | 4302 ft | 253 kts | 4° |
| 2026-05-07 19:41 | -19.97832 | 35.07715 | 3964 ft | 252 kts | 4° |
| 2026-05-07 19:41 | -19.96089 | 35.07851 | 3630 ft | 252 kts | 4° |
| 2026-05-07 19:41 | -19.94342 | 35.07994 | 3342 ft | 250 kts | 6° |
| 2026-05-07 19:42 | -19.92692 | 35.08425 | 3325 ft | 237 kts | 16° |
| 2026-05-07 19:42 | -19.91125 | 35.08860 | 3318 ft | 228 kts | 14° |
| 2026-05-07 19:42 | -19.89631 | 35.09274 | 3316 ft | 221 kts | 14° |
| 2026-05-07 19:42 | -19.88155 | 35.09685 | 3287 ft | 217 kts | 15° |
| 2026-05-07 19:43 | -19.86684 | 35.10066 | 3161 ft | 221 kts | 8° |
| 2026-05-07 19:43 | -19.85199 | 35.09724 | 3009 ft | 215 kts | 330° |
| 2026-05-07 19:43 | -19.84210 | 35.08638 | 2832 ft | 202 kts | 297° |
| 2026-05-07 19:43 | -19.83788 | 35.07256 | 2673 ft | 192 kts | 284° |
| 2026-05-07 19:44 | -19.83456 | 35.05907 | 2501 ft | 185 kts | 283° |
| 2026-05-07 19:44 | -19.83136 | 35.04603 | 2339 ft | 179 kts | 283° |
| 2026-05-07 19:44 | -19.82933 | 35.03781 | 2234 ft | 171 kts | 283° |
| 2026-05-07 19:44 | -19.82727 | 35.02981 | 2139 ft | 164 kts | 283° |
| 2026-05-07 19:45 | -19.82445 | 35.01848 | 2009 ft | 156 kts | 283° |
| 2026-05-07 19:45 | -19.82162 | 35.00740 | 1812 ft | 156 kts | 282° |
| 2026-05-07 19:45 | -19.81885 | 34.99632 | 1598 ft | 154 kts | 283° |
| 2026-05-07 19:45 | -19.81611 | 34.98545 | 1381 ft | 147 kts | 282° |
| 2026-05-07 19:46 | -19.81366 | 34.97601 | 1183 ft | 119 kts | 282° |
| 2026-05-07 19:46 | -19.81161 | 34.96781 | 1017 ft | 113 kts | 282° |
| 2026-05-07 19:46 | -19.80960 | 34.95968 | 874 ft | 114 kts | 282° |
| 2026-05-07 19:46 | -19.80736 | 34.95144 | 721 ft | 116 kts | 286° |
| 2026-05-07 19:47 | -19.80502 | 34.94343 | 518 ft | 112 kts | 281° |
| 2026-05-07 19:47 | -19.80339 | 34.93548 | 337 ft | 110 kts | 281° |
| 2026-05-07 19:47 | -19.80147 | 34.92766 | 218 ft | 109 kts | 284° |
| 2026-05-07 19:47 | -19.79951 | 34.91998 | 108 ft | 106 kts | 283° |
| 2026-05-07 19:48 | -19.79776 | 34.91285 | 41 ft | 89 kts | 283° |
| 2026-05-07 19:48 | -19.79641 | 34.90755 | 37 ft | 56 kts | 288° |
| 2026-05-07 19:48 | -19.79584 | 34.90521 | 36 ft | 20 kts | 271° |
| 2026-05-07 19:48 | -19.79665 | 34.90449 | 37 ft | 5 kts | 194° |
| 2026-05-07 19:49 | -19.79700 | 34.90438 | 37 ft | 6 kts | 206° |
| 2026-05-07 19:49 | -19.79719 | 34.90377 | 37 ft | 12 kts | 282° |
| 2026-05-07 19:49 | -19.79698 | 34.90288 | 37 ft | 13 kts | 273° |
| 2026-05-07 19:49 | -19.79718 | 34.90198 | 37 ft | 13 kts | 229° |
| 2026-05-07 19:50 | -19.79766 | 34.90129 | 38 ft | 9 kts | 189° |
| 2026-05-07 19:50 | -19.79790 | 34.90110 | 38 ft | 3 kts | 283° |
| 2026-05-07 19:50 | -19.79782 | 34.90078 | 38 ft | 0 kts | 286° |